Time;durP1;ratioP1;P1;durP2;ratioP2;P2;SDS_P1;SDS_P2;PMS_P1;PMS_P2;Temp;Humidity;BMP_temperature;BMP_pressure;BME280_temperature;BME280_humidity;BME280_pressure;Samples;Min_cycle;Max_cycle;Signal;HPM_P1;HPM_P2
2022/04/13 00:00:46;;;;;;;11.05;2.47;;;;;;;;;;5089951;28;20047;-77
2022/04/13 00:03:16;;;;;;;8.05;2.60;;;;;;;;;;5089740;28;20048;-75
2022/04/13 00:05:45;;;;;;;7.68;2.72;;;;;;;;;;5089870;28;20048;-77
2022/04/13 00:08:15;;;;;;;12.48;2.88;;;;;;;;;;5089330;28;20048;-75
2022/04/13 00:10:45;;;;;;;7.70;2.75;;;;;;;;;;5089990;28;20044;-76
2022/04/13 00:13:15;;;;;;;8.70;2.60;;;;;;;;;;5089708;28;20048;-76
2022/04/13 00:15:45;;;;;;;12.23;2.80;;;;;;;;;;5088885;28;20067;-76
2022/04/13 00:18:15;;;;;;;9.68;2.53;;;;;;;;;;5088240;28;20067;-75
2022/04/13 00:20:48;;;;;;;12.15;2.85;;;;;;;;;;5089738;28;20051;-75
2022/04/13 00:23:18;;;;;;;11.68;2.75;;;;;;;;;;5088975;28;20069;-76
2022/04/13 00:25:48;;;;;;;6.60;2.47;;;;;;;;;;5089742;28;20588;-76
2022/04/13 00:28:18;;;;;;;9.25;3.08;;;;;;;;;;5089437;28;20051;-75
2022/04/13 00:30:48;;;;;;;7.57;2.88;;;;;;;;;;5089640;28;20055;-76
2022/04/13 00:33:18;;;;;;;8.27;2.70;;;;;;;;;;5088755;28;20058;-76
2022/04/13 00:35:48;;;;;;;11.82;2.92;;;;;;;;;;5087797;28;20056;-76
2022/04/13 00:38:19;;;;;;;6.15;2.45;;;;;;;;;;5089409;28;20044;-75
2022/04/13 00:40:50;;;;;;;10.27;2.72;;;;;;;;;;5088338;28;20047;-75
2022/04/13 00:43:20;;;;;;;6.77;2.63;;;;;;;;;;5088407;28;20060;-76
2022/04/13 00:45:51;;;;;;;14.52;2.80;;;;;;;;;;5085185;28;20305;-77
2022/04/13 00:48:39;;;;;;;15.07;3.35;;;;;;;;;;5086388;28;20051;-76
2022/04/13 00:51:09;;;;;;;9.88;3.45;;;;;;;;;;5087584;28;20047;-75
2022/04/13 00:53:42;;;;;;;13.13;3.22;;;;;;;;;;5087197;28;20494;-76
2022/04/13 00:56:13;;;;;;;11.88;3.50;;;;;;;;;;5069231;28;20043;-74
2022/04/13 00:58:45;;;;;;;13.73;3.10;;;;;;;;;;5069561;28;20056;-75
2022/04/13 01:01:16;;;;;;;16.15;3.70;;;;;;;;;;5088139;28;20047;-75
2022/04/13 01:03:50;;;;;;;12.30;3.42;;;;;;;;;;5088186;28;20047;-75
2022/04/13 01:06:21;;;;;;;18.80;3.67;;;;;;;;;;5088127;28;20048;-76
2022/04/13 01:08:51;;;;;;;15.77;3.78;;;;;;;;;;5087546;28;20059;-77
2022/04/13 01:11:22;;;;;;;18.63;3.60;;;;;;;;;;5088052;28;20059;-75
2022/04/13 01:13:54;;;;;;;17.95;3.55;;;;;;;;;;5088779;28;20055;-75
2022/04/13 01:16:28;;;;;;;17.92;4.10;;;;;;;;;;5088306;28;20028;-74
2022/04/13 01:18:58;;;;;;;12.98;4.30;;;;;;;;;;5088170;28;20047;-76
2022/04/13 01:21:47;;;;;;;16.80;3.67;;;;;;;;;;5088479;28;20047;-76
2022/04/13 01:24:18;;;;;;;16.27;3.45;;;;;;;;;;5087717;28;20036;-76
2022/04/13 01:26:49;;;;;;;12.20;3.53;;;;;;;;;;5088218;28;20058;-76
2022/04/13 01:29:18;;;;;;;16.35;3.53;;;;;;;;;;5087876;28;20044;-76
2022/04/13 01:31:49;;;;;;;24.88;3.85;;;;;;;;;;5086819;28;20052;-77
2022/04/13 01:34:19;;;;;;;19.95;4.13;;;;;;;;;;5088010;28;20040;-77
2022/04/13 01:36:49;;;;;;;16.67;3.60;;;;;;;;;;5088256;28;20047;-76
2022/04/13 01:39:20;;;;;;;10.60;3.10;;;;;;;;;;5088501;28;20055;-76
2022/04/13 01:41:51;;;;;;;15.55;3.70;;;;;;;;;;5088790;28;20048;-76
2022/04/13 01:44:21;;;;;;;12.60;3.78;;;;;;;;;;5087293;28;20071;-75
2022/04/13 01:46:50;;;;;;;17.77;3.65;;;;;;;;;;5087726;28;20056;-76
2022/04/13 01:49:20;;;;;;;22.35;3.67;;;;;;;;;;5087489;28;20628;-76
2022/04/13 01:51:50;;;;;;;14.25;3.17;;;;;;;;;;5087520;28;20059;-75
2022/04/13 01:54:20;;;;;;;15.45;3.47;;;;;;;;;;5087985;28;20427;-75
2022/04/13 01:56:50;;;;;;;22.15;3.72;;;;;;;;;;5088040;28;21014;-76
2022/04/13 01:59:19;;;;;;;10.10;3.00;;;;;;;;;;5087392;28;20055;-75
2022/04/13 02:01:50;;;;;;;20.85;3.72;;;;;;;;;;5069021;28;20044;-76
2022/04/13 02:04:22;;;;;;;15.57;3.47;;;;;;;;;;5087609;28;20048;-75
2022/04/13 02:06:53;;;;;;;22.60;3.20;;;;;;;;;;5087729;28;20043;-75
2022/04/13 02:09:23;;;;;;;16.20;3.33;;;;;;;;;;5087364;28;20048;-75
2022/04/13 02:11:53;;;;;;;12.45;2.97;;;;;;;;;;5087427;28;20040;-75
2022/04/13 02:14:23;;;;;;;20.33;3.75;;;;;;;;;;5085736;28;20063;-75
2022/04/13 02:16:53;;;;;;;20.40;3.33;;;;;;;;;;5085958;28;20056;-75
2022/04/13 02:19:23;;;;;;;23.50;3.45;;;;;;;;;;5086651;28;20056;-75
2022/04/13 02:21:53;;;;;;;25.05;3.08;;;;;;;;;;5086862;28;20044;-76
2022/04/13 02:24:23;;;;;;;15.85;3.03;;;;;;;;;;5087579;28;20415;-75
2022/04/13 02:26:53;;;;;;;20.20;3.15;;;;;;;;;;5086637;28;20818;-75
2022/04/13 02:29:23;;;;;;;19.00;3.40;;;;;;;;;;5086897;28;20048;-75
2022/04/13 02:31:53;;;;;;;22.65;4.28;;;;;;;;;;5068680;28;20513;-74
2022/04/13 02:34:22;;;;;;;21.95;3.38;;;;;;;;;;5086806;28;20426;-75
2022/04/13 02:36:52;;;;;;;22.25;3.28;;;;;;;;;;5086826;28;20411;-74
2022/04/13 02:39:22;;;;;;;28.55;3.38;;;;;;;;;;5086776;28;20074;-75
2022/04/13 02:41:52;;;;;;;13.07;2.67;;;;;;;;;;5068620;28;20063;-77
2022/04/13 02:44:22;;;;;;;25.67;3.45;;;;;;;;;;5087239;28;20059;-75
2022/04/13 02:46:52;;;;;;;20.95;3.25;;;;;;;;;;5087112;28;20048;-73
2022/04/13 02:49:21;;;;;;;18.20;3.10;;;;;;;;;;5087107;28;20051;-74
2022/04/13 02:51:51;;;;;;;23.65;4.22;;;;;;;;;;5085906;28;20044;-76
2022/04/13 02:54:21;;;;;;;20.08;3.80;;;;;;;;;;5086940;28;20429;-75
2022/04/13 02:56:51;;;;;;;16.95;3.30;;;;;;;;;;5086858;28;20047;-75
2022/04/13 02:59:21;;;;;;;23.50;2.97;;;;;;;;;;5086774;28;20059;-75
2022/04/13 03:01:50;;;;;;;19.63;3.30;;;;;;;;;;5086437;28;20758;-75
2022/04/13 03:04:25;;;;;;;16.33;3.13;;;;;;;;;;5086586;28;20066;-75
2022/04/13 03:06:55;;;;;;;13.48;2.95;;;;;;;;;;5086675;28;20039;-75
2022/04/13 03:09:25;;;;;;;13.15;2.92;;;;;;;;;;5086751;28;20047;-76
2022/04/13 03:11:54;;;;;;;21.58;3.38;;;;;;;;;;5069506;28;20388;-76
2022/04/13 03:14:24;;;;;;;17.98;3.63;;;;;;;;;;5086619;28;20048;-77
2022/04/13 03:16:54;;;;;;;18.08;3.30;;;;;;;;;;5067417;28;20060;-76
2022/04/13 03:19:24;;;;;;;10.32;2.40;;;;;;;;;;5086362;28;20044;-76
2022/04/13 03:21:54;;;;;;;24.23;3.55;;;;;;;;;;5084864;28;20407;-75
2022/04/13 03:24:26;;;;;;;26.63;3.20;;;;;;;;;;5086385;28;20055;-76
2022/04/13 03:26:57;;;;;;;17.33;3.28;;;;;;;;;;5086657;28;20411;-76
2022/04/13 03:29:27;;;;;;;13.60;3.08;;;;;;;;;;5085871;28;20047;-76
2022/04/13 03:31:58;;;;;;;20.63;3.17;;;;;;;;;;5086885;28;20040;-77
2022/04/13 03:34:30;;;;;;;20.65;3.47;;;;;;;;;;5089194;28;20063;-76
2022/04/13 03:37:00;;;;;;;19.83;3.00;;;;;;;;;;5090778;28;20063;-76
2022/04/13 03:39:30;;;;;;;13.93;2.42;;;;;;;;;;5090079;28;20040;-76
2022/04/13 03:42:00;;;;;;;10.48;2.78;;;;;;;;;;5090080;28;20051;-76
2022/04/13 03:44:30;;;;;;;13.40;2.67;;;;;;;;;;5089863;28;20060;-76
2022/04/13 03:47:00;;;;;;;13.40;3.15;;;;;;;;;;5090248;28;20058;-76
2022/04/13 03:49:30;;;;;;;18.88;3.28;;;;;;;;;;5090040;28;20056;-76
2022/04/13 03:52:00;;;;;;;29.73;3.15;;;;;;;;;;5089625;28;20043;-76
2022/04/13 03:54:29;;;;;;;22.00;2.92;;;;;;;;;;5071213;28;20055;-76
2022/04/13 03:56:59;;;;;;;10.82;2.28;;;;;;;;;;5071998;28;20056;-76
2022/04/13 03:59:29;;;;;;;22.30;2.60;;;;;;;;;;5090628;28;20040;-76
2022/04/13 04:01:59;;;;;;;14.68;3.10;;;;;;;;;;5088375;28;20066;-77
2022/04/13 04:04:28;;;;;;;21.67;3.10;;;;;;;;;;5089737;28;20040;-76
2022/04/13 04:06:58;;;;;;;18.70;3.03;;;;;;;;;;5089742;28;20052;-76
2022/04/13 04:09:28;;;;;;;16.40;2.60;;;;;;;;;;5089518;28;20368;-76
2022/04/13 04:11:58;;;;;;;18.55;2.95;;;;;;;;;;5089718;28;20051;-75
2022/04/13 04:14:28;;;;;;;13.20;3.42;;;;;;;;;;5089984;28;20060;-77
2022/04/13 04:16:57;;;;;;;17.08;2.85;;;;;;;;;;5071088;28;20462;-75
2022/04/13 04:19:27;;;;;;;20.58;2.58;;;;;;;;;;5089682;28;20040;-75
2022/04/13 04:21:57;;;;;;;21.15;2.92;;;;;;;;;;5090004;28;20048;-75
2022/04/13 04:24:28;;;;;;;17.13;3.13;;;;;;;;;;5089514;28;20046;-75
2022/04/13 04:26:58;;;;;;;10.77;2.78;;;;;;;;;;5089252;28;20044;-76
2022/04/13 04:29:28;;;;;;;20.40;3.22;;;;;;;;;;5089195;28;20048;-76
2022/04/13 04:31:59;;;;;;;18.58;3.33;;;;;;;;;;5089161;28;20048;-76
2022/04/13 04:34:30;;;;;;;15.15;2.85;;;;;;;;;;5089654;28;20482;-76
2022/04/13 04:37:00;;;;;;;20.70;3.25;;;;;;;;;;5089418;28;20059;-77
2022/04/13 04:39:30;;;;;;;25.88;3.25;;;;;;;;;;5089162;28;20511;-76
2022/04/13 04:42:02;;;;;;;22.58;2.75;;;;;;;;;;5089324;28;20044;-76
2022/04/13 04:44:32;;;;;;;27.50;3.38;;;;;;;;;;5088558;28;20506;-76
2022/04/13 04:47:02;;;;;;;17.85;2.30;;;;;;;;;;5070493;28;20075;-76
2022/04/13 04:49:32;;;;;;;12.83;2.40;;;;;;;;;;5089504;28;20048;-76
2022/04/13 04:52:02;;;;;;;16.80;3.10;;;;;;;;;;5088893;28;20293;-75
2022/04/13 04:54:32;;;;;;;15.38;2.63;;;;;;;;;;5089180;28;20048;-76
2022/04/13 04:57:02;;;;;;;16.80;3.20;;;;;;;;;;5088546;28;20673;-76
2022/04/13 04:59:32;;;;;;;18.70;2.65;;;;;;;;;;5088581;28;20048;-77
2022/04/13 05:02:02;;;;;;;17.88;3.20;;;;;;;;;;5089025;28;20048;-76
2022/04/13 05:04:32;;;;;;;16.70;2.85;;;;;;;;;;5088982;28;20418;-76
2022/04/13 05:07:02;;;;;;;20.40;2.50;;;;;;;;;;5088954;28;20056;-76
2022/04/13 05:09:32;;;;;;;16.13;2.60;;;;;;;;;;5089227;28;20051;-77
2022/04/13 05:12:04;;;;;;;12.48;2.38;;;;;;;;;;5089319;28;20059;-77
2022/04/13 05:14:34;;;;;;;11.27;2.55;;;;;;;;;;5088444;28;20499;-76
2022/04/13 05:17:04;;;;;;;15.73;2.28;;;;;;;;;;5088780;28;20675;-76
2022/04/13 05:19:34;;;;;;;26.83;3.50;;;;;;;;;;5088820;28;20051;-77
2022/04/13 05:22:04;;;;;;;16.33;3.20;;;;;;;;;;5088321;28;20044;-78
2022/04/13 05:24:33;;;;;;;11.23;2.72;;;;;;;;;;5088145;28;20059;-76
2022/04/13 05:27:04;;;;;;;18.50;2.80;;;;;;;;;;5087966;28;20055;-76
2022/04/13 05:29:34;;;;;;;14.07;2.60;;;;;;;;;;5088432;28;20048;-76
2022/04/13 05:32:04;;;;;;;11.35;2.30;;;;;;;;;;5088059;28;20384;-78
2022/04/13 05:34:33;;;;;;;17.38;3.30;;;;;;;;;;5069789;28;20056;-76
2022/04/13 05:37:03;;;;;;;20.42;2.83;;;;;;;;;;5088595;28;20487;-76
2022/04/13 05:39:35;;;;;;;21.17;3.00;;;;;;;;;;5070614;28;20063;-77
2022/04/13 05:42:05;;;;;;;15.40;2.42;;;;;;;;;;5087898;28;20052;-78
2022/04/13 05:44:35;;;;;;;20.38;3.25;;;;;;;;;;5087464;28;20056;-77
2022/04/13 05:47:05;;;;;;;11.05;2.97;;;;;;;;;;5087809;28;20040;-75
2022/04/13 05:49:35;;;;;;;12.45;2.50;;;;;;;;;;5087433;28;20048;-76
2022/04/13 05:52:05;;;;;;;19.95;2.75;;;;;;;;;;5087859;28;20044;-76
2022/04/13 05:54:34;;;;;;;24.50;2.78;;;;;;;;;;5069940;28;20063;-75
2022/04/13 05:57:04;;;;;;;16.02;3.17;;;;;;;;;;5070680;28;20051;-76
2022/04/13 05:59:35;;;;;;;17.10;2.00;;;;;;;;;;5087900;28;20370;-76
2022/04/13 06:02:05;;;;;;;16.80;2.38;;;;;;;;;;5086211;28;20055;-76
2022/04/13 06:04:36;;;;;;;16.60;2.88;;;;;;;;;;5087744;28;20044;-76
2022/04/13 06:07:06;;;;;;;12.57;1.92;;;;;;;;;;5087922;28;20500;-76
2022/04/13 06:09:36;;;;;;;11.00;2.45;;;;;;;;;;5087172;28;20055;-75
2022/04/13 06:12:07;;;;;;;18.02;2.63;;;;;;;;;;5086908;28;20048;-76
2022/04/13 06:14:37;;;;;;;18.70;2.58;;;;;;;;;;5086130;28;20526;-76
2022/04/13 06:17:06;;;;;;;30.25;2.72;;;;;;;;;;5085989;28;20048;-76
2022/04/13 06:19:36;;;;;;;16.92;2.85;;;;;;;;;;5083342;28;20701;-76
2022/04/13 06:22:07;;;;;;;15.27;2.27;;;;;;;;;;5065998;28;20069;-76
2022/04/13 06:24:36;;;;;;;11.95;2.60;;;;;;;;;;5066474;28;20047;-76
2022/04/13 06:27:06;;;;;;;9.98;1.83;;;;;;;;;;5069139;28;20051;-76
2022/04/13 06:29:37;;;;;;;13.82;2.13;;;;;;;;;;5087527;28;20048;-77
2022/04/13 06:32:07;;;;;;;15.80;2.35;;;;;;;;;;5068737;28;20055;-76
2022/04/13 06:34:37;;;;;;;17.50;2.72;;;;;;;;;;5068673;28;20060;-76
2022/04/13 06:37:07;;;;;;;15.70;2.50;;;;;;;;;;5087025;28;20051;-76
2022/04/13 06:39:37;;;;;;;20.27;2.28;;;;;;;;;;5086859;28;20071;-76
2022/04/13 06:42:07;;;;;;;16.90;2.58;;;;;;;;;;5087376;28;20059;-75
2022/04/13 06:44:37;;;;;;;17.58;2.70;;;;;;;;;;5086144;28;20056;-76
2022/04/13 06:47:08;;;;;;;23.52;3.50;;;;;;;;;;5087407;28;20036;-75
2022/04/13 06:49:39;;;;;;;17.30;3.22;;;;;;;;;;5087365;28;20533;-77
2022/04/13 06:52:09;;;;;;;29.17;2.85;;;;;;;;;;5068580;28;20556;-76
2022/04/13 06:54:39;;;;;;;16.92;2.75;;;;;;;;;;5086364;28;20570;-76
2022/04/13 06:57:09;;;;;;;26.00;3.83;;;;;;;;;;5068808;28;20063;-77
2022/04/13 06:59:39;;;;;;;26.90;2.50;;;;;;;;;;5086570;28;20415;-76
2022/04/13 07:02:12;;;;;;;13.07;2.47;;;;;;;;;;5086844;28;20055;-75
2022/04/13 07:04:45;;;;;;;18.00;2.50;;;;;;;;;;5086407;28;20048;-75
2022/04/13 07:07:20;;;;;;;17.60;2.55;;;;;;;;;;5086909;28;20499;-76
2022/04/13 07:09:50;;;;;;;14.18;2.92;;;;;;;;;;5085708;28;20056;-75
2022/04/13 07:12:20;;;;;;;14.05;2.40;;;;;;;;;;5086816;28;20063;-75
2022/04/13 07:14:50;;;;;;;13.68;2.50;;;;;;;;;;5087268;28;20051;-76
2022/04/13 07:17:20;;;;;;;13.73;2.45;;;;;;;;;;5086712;28;20491;-76
2022/04/13 07:19:49;;;;;;;16.27;2.63;;;;;;;;;;5086827;28;20052;-75
2022/04/13 07:22:19;;;;;;;13.75;2.92;;;;;;;;;;5086774;28;20040;-76
2022/04/13 07:24:49;;;;;;;12.57;2.17;;;;;;;;;;5068045;28;20052;-76
2022/04/13 07:27:20;;;;;;;21.73;2.77;;;;;;;;;;5087045;28;20048;-76
2022/04/13 07:29:49;;;;;;;25.08;2.63;;;;;;;;;;5068352;28;20070;-76
2022/04/13 07:32:19;;;;;;;19.40;3.17;;;;;;;;;;5086743;28;20047;-75
2022/04/13 07:34:49;;;;;;;16.15;2.60;;;;;;;;;;5086861;28;20052;-77
2022/04/13 07:37:19;;;;;;;16.90;2.63;;;;;;;;;;5069222;28;20044;-76
2022/04/13 07:39:49;;;;;;;14.88;2.72;;;;;;;;;;5086656;28;20048;-76
2022/04/13 07:42:22;;;;;;;15.68;2.63;;;;;;;;;;5086824;28;20067;-76
2022/04/13 07:44:53;;;;;;;17.40;2.30;;;;;;;;;;5085779;28;20052;-77
2022/04/13 07:47:28;;;;;;;21.75;2.15;;;;;;;;;;5089206;28;20055;-76
2022/04/13 07:49:58;;;;;;;20.73;3.13;;;;;;;;;;5089805;28;20040;-75
2022/04/13 07:52:34;;;;;;;14.55;2.28;;;;;;;;;;5072562;28;20081;-75
2022/04/13 07:55:06;;;;;;;22.50;2.63;;;;;;;;;;5091054;28;20052;-77
2022/04/13 07:57:38;;;;;;;22.10;2.50;;;;;;;;;;5074112;28;20503;-76
2022/04/13 08:00:11;;;;;;;12.85;2.28;;;;;;;;;;5072599;28;20063;-76
2022/04/13 08:02:42;;;;;;;16.02;2.53;;;;;;;;;;5071500;28;20056;-76
2022/04/13 08:05:13;;;;;;;16.23;2.42;;;;;;;;;;5086762;28;20048;-76
2022/04/13 08:07:44;;;;;;;16.13;2.40;;;;;;;;;;5086201;28;20044;-75
2022/04/13 08:10:15;;;;;;;22.77;2.47;;;;;;;;;;5085763;28;20085;-77
2022/04/13 08:12:47;;;;;;;14.57;2.40;;;;;;;;;;5066731;28;20048;-75
2022/04/13 08:15:18;;;;;;;19.85;2.60;;;;;;;;;;5086788;28;20221;-76
2022/04/13 08:17:48;;;;;;;15.53;2.27;;;;;;;;;;5085379;28;20402;-76
2022/04/13 08:20:19;;;;;;;16.03;2.03;;;;;;;;;;5085936;28;20286;-76
2022/04/13 08:22:49;;;;;;;27.20;4.15;;;;;;;;;;5090396;28;20394;-76
2022/04/13 08:25:19;;;;;;;17.05;2.50;;;;;;;;;;5097653;28;20028;-76
2022/04/13 08:27:49;;;;;;;20.13;3.33;;;;;;;;;;5098331;28;20028;-76
2022/04/13 08:30:18;;;;;;;26.25;2.97;;;;;;;;;;5114833;28;20044;-76
2022/04/13 08:32:48;;;;;;;18.33;2.90;;;;;;;;;;5114945;28;20054;-76
2022/04/13 08:35:18;;;;;;;20.52;3.10;;;;;;;;;;5115309;28;20036;-80
2022/04/13 08:37:48;;;;;;;15.15;3.13;;;;;;;;;;5111206;28;20040;-76
2022/04/13 08:40:20;;;;;;;22.65;3.20;;;;;;;;;;5089690;28;20048;-77
2022/04/13 08:43:07;;;;;;;17.98;2.75;;;;;;;;;;5089109;28;20411;-77
2022/04/13 08:45:54;;;;;;;28.15;3.20;;;;;;;;;;5090238;28;20055;-77
2022/04/13 08:48:26;;;;;;;26.60;3.78;;;;;;;;;;5089350;28;20043;-75
2022/04/13 08:51:08;;;;;;;20.40;3.05;;;;;;;;;;5089052;28;20110;-77
2022/04/13 08:53:43;;;;;;;30.25;3.78;;;;;;;;;;5088508;28;20040;-78
2022/04/13 08:56:17;;;;;;;23.15;2.90;;;;;;;;;;5088836;28;20051;-74
2022/04/13 08:59:06;;;;;;;27.50;3.22;;;;;;;;;;5088971;28;20423;-77
2022/04/13 09:01:56;;;;;;;20.90;4.13;;;;;;;;;;5089294;28;20409;-76
2022/04/13 09:04:28;;;;;;;18.92;3.05;;;;;;;;;;5088782;28;20052;-75
2022/04/13 09:07:00;;;;;;;14.80;2.83;;;;;;;;;;5088918;28;20411;-77
2022/04/13 09:09:41;;;;;;;25.23;2.67;;;;;;;;;;5089089;28;20055;-77
2022/04/13 09:12:14;;;;;;;18.37;2.70;;;;;;;;;;5089547;28;20048;-77
2022/04/13 09:14:45;;;;;;;10.60;2.20;;;;;;;;;;5088717;28;20055;-76
2022/04/13 09:17:16;;;;;;;21.60;2.65;;;;;;;;;;5088159;28;20044;-76
2022/04/13 09:19:47;;;;;;;18.48;3.47;;;;;;;;;;5087496;28;20491;-76
2022/04/13 09:22:18;;;;;;;17.42;3.08;;;;;;;;;;5088971;28;20048;-77
2022/04/13 09:24:50;;;;;;;21.90;3.10;;;;;;;;;;5088778;28;20036;-77
2022/04/13 09:27:20;;;;;;;20.70;2.67;;;;;;;;;;5088335;28;20056;-77
2022/04/13 09:29:50;;;;;;;26.85;3.67;;;;;;;;;;5068976;28;20056;-77
2022/04/13 09:32:20;;;;;;;21.33;2.83;;;;;;;;;;5088409;28;20052;-77
2022/04/13 09:34:51;;;;;;;13.27;2.30;;;;;;;;;;5070136;28;20503;-77
2022/04/13 09:37:21;;;;;;;;;;;;;;;;;;5088140;28;20051;-77
2022/04/13 09:39:51;;;;;;;20.23;2.75;;;;;;;;;;5070027;28;19931;-78
2022/04/13 09:42:28;;;;;;;22.83;2.70;;;;;;;;;;5088145;28;20063;-77
2022/04/13 09:45:03;;;;;;;29.48;3.40;;;;;;;;;;5087650;28;20067;-76
2022/04/13 09:47:34;;;;;;;16.17;2.50;;;;;;;;;;5087041;28;20056;-77
2022/04/13 09:50:04;;;;;;;13.05;2.17;;;;;;;;;;5087859;28;20040;-77
2022/04/13 09:52:43;;;;;;;21.35;2.80;;;;;;;;;;5087594;28;20048;-79
2022/04/13 09:55:13;;;;;;;16.95;2.90;;;;;;;;;;5087858;28;20395;-76
2022/04/13 09:57:44;;;;;;;25.38;2.70;;;;;;;;;;5088064;28;20418;-76
2022/04/13 10:00:15;;;;;;;23.05;2.92;;;;;;;;;;5087647;28;20051;-78
2022/04/13 10:02:45;;;;;;;;;;;;;;;;;;5088135;28;20032;-75
2022/04/13 10:05:14;;;;;;;23.08;2.95;;;;;;;;;;5087301;28;20397;-76
2022/04/13 10:07:44;;;;;;;21.70;3.20;;;;;;;;;;5087632;28;20044;-77
2022/04/13 10:10:24;;;;;;;17.80;2.70;;;;;;;;;;5087085;28;20048;-76
2022/04/13 10:12:55;;;;;;;32.78;3.28;;;;;;;;;;5087879;28;20048;-76
2022/04/13 10:15:25;;;;;;;16.17;2.92;;;;;;;;;;5088717;28;20067;-77
2022/04/13 10:18:05;;;;;;;25.02;3.33;;;;;;;;;;5089545;28;20044;-77
2022/04/13 10:20:47;;;;;;;17.83;2.75;;;;;;;;;;5054156;28;20059;-78
2022/04/13 10:23:16;;;;;;;;;;;;;;;;;;5070757;28;20510;-77
2022/04/13 10:25:47;;;;;;;18.85;3.00;;;;;;;;;;5087082;28;19924;-74
2022/04/13 10:28:26;;;;;;;15.88;2.53;;;;;;;;;;5087069;28;20048;-75
2022/04/13 10:30:56;;;;;;;22.05;3.20;;;;;;;;;;5068954;28;20048;-77
2022/04/13 10:33:27;;;;;;;19.92;3.28;;;;;;;;;;5086171;28;20048;-77
2022/04/13 10:35:56;;;;;;;17.00;2.70;;;;;;;;;;5084943;28;20066;-76
2022/04/13 10:38:26;;;;;;;22.25;3.15;;;;;;;;;;5085903;28;20044;-76
2022/04/13 10:40:57;;;;;;;11.43;2.88;;;;;;;;;;5087051;28;20035;-77
2022/04/13 10:43:28;;;;;;;16.70;2.75;;;;;;;;;;5085816;28;20048;-77
2022/04/13 10:45:58;;;;;;;14.70;2.67;;;;;;;;;;5086734;28;20036;-77
2022/04/13 10:48:34;;;;;;;21.17;2.88;;;;;;;;;;5087607;28;20071;-78
2022/04/13 10:51:13;;;;;;;16.60;3.00;;;;;;;;;;5086454;28;20040;-77
2022/04/13 10:54:00;;;;;;;20.42;2.25;;;;;;;;;;5067544;28;20059;-78
2022/04/13 10:56:34;;;;;;;14.68;2.33;;;;;;;;;;5069264;28;20052;-77
2022/04/13 10:59:18;;;;;;;20.02;3.03;;;;;;;;;;5087082;28;20043;-76
2022/04/13 11:02:11;;;;;;;15.13;2.83;;;;;;;;;;5086618;28;20044;-77
2022/04/13 11:04:42;;;;;;;22.67;2.63;;;;;;;;;;5086737;28;20066;-77
2022/04/13 11:07:12;;;;;;;24.80;2.90;;;;;;;;;;5086555;28;20044;-76
2022/04/13 11:09:44;;;;;;;16.23;2.25;;;;;;;;;;5086535;28;20484;-76
2022/04/13 11:12:14;;;;;;;11.95;2.60;;;;;;;;;;5086860;28;20411;-77
2022/04/13 11:14:52;;;;;;;17.35;2.45;;;;;;;;;;5086882;28;20056;-76
2022/04/13 11:17:23;;;;;;;22.63;3.10;;;;;;;;;;5086645;28;20060;-76
2022/04/13 11:20:22;;;;;;;17.17;2.83;;;;;;;;;;5086334;28;20044;-75
2022/04/13 11:23:15;;;;;;;16.83;2.63;;;;;;;;;;5086256;28;20048;-75
2022/04/13 11:25:51;;;;;;;12.48;2.60;;;;;;;;;;5086505;28;20122;-78
2022/04/13 11:28:26;;;;;;;18.50;3.08;;;;;;;;;;5086763;28;20063;-79
2022/04/13 11:31:07;;;;;;;17.98;3.05;;;;;;;;;;5084413;28;20047;-76
2022/04/13 11:33:44;;;;;;;20.20;2.97;;;;;;;;;;5085827;28;20071;-76
2022/04/13 11:36:14;;;;;;;11.10;2.53;;;;;;;;;;5086694;28;20515;-76
2022/04/13 11:39:05;;;;;;;16.40;3.08;;;;;;;;;;5086196;28;20048;-76
2022/04/13 11:41:34;;;;;;;13.25;2.35;;;;;;;;;;5086474;28;20040;-76
2022/04/13 11:44:17;;;;;;;18.92;3.05;;;;;;;;;;5086557;28;20052;-77
2022/04/13 11:46:47;;;;;;;13.60;2.72;;;;;;;;;;5086265;28;20044;-77
2022/04/13 11:49:17;;;;;;;11.50;2.15;;;;;;;;;;5085705;28;20040;-76
2022/04/13 11:51:47;;;;;;;16.98;2.78;;;;;;;;;;5086619;28;20403;-76
2022/04/13 11:54:17;;;;;;;14.38;2.67;;;;;;;;;;5067871;28;20048;-76
2022/04/13 11:56:52;;;;;;;18.25;3.05;;;;;;;;;;5089911;28;20059;-75
2022/04/13 11:59:50;;;;;;;17.75;2.92;;;;;;;;;;5090114;28;20055;-76
2022/04/13 12:02:22;;;;;;;12.07;2.65;;;;;;;;;;5081939;28;20044;-78
2022/04/13 12:05:01;;;;;;;15.18;2.88;;;;;;;;;;5071550;28;20044;-75
2022/04/13 12:07:35;;;;;;;13.15;2.70;;;;;;;;;;5090614;28;20052;-75
2022/04/13 12:10:08;;;;;;;13.43;2.00;;;;;;;;;;5089755;28;20044;-75
2022/04/13 12:12:53;;;;;;;16.02;2.50;;;;;;;;;;5089882;28;21094;-75
2022/04/13 12:15:23;;;;;;;13.90;2.70;;;;;;;;;;5090138;28;20055;-75
2022/04/13 12:17:54;;;;;;;16.67;2.45;;;;;;;;;;5090247;28;20071;-78
2022/04/13 12:20:28;;;;;;;21.13;2.72;;;;;;;;;;5089403;28;20085;-76
2022/04/13 12:22:58;;;;;;;12.60;2.22;;;;;;;;;;5090031;28;20051;-76
2022/04/13 12:25:28;;;;;;;14.30;2.23;;;;;;;;;;5090205;28;20047;-77
2022/04/13 12:28:05;;;;;;;17.45;2.92;;;;;;;;;;5089643;28;20044;-76
2022/04/13 12:30:36;;;;;;;14.63;2.35;;;;;;;;;;5089663;28;20036;-76
2022/04/13 12:33:15;;;;;;;11.18;2.28;;;;;;;;;;5089165;28;20070;-75
2022/04/13 12:35:55;;;;;;;11.38;1.58;;;;;;;;;;5088921;28;20134;-75
2022/04/13 12:38:36;;;;;;;15.95;2.42;;;;;;;;;;5089471;28;20052;-77
2022/04/13 12:41:15;;;;;;;13.60;1.98;;;;;;;;;;5089247;28;20044;-78
2022/04/13 12:44:02;;;;;;;9.82;1.90;;;;;;;;;;5089070;28;20059;-75
2022/04/13 12:46:33;;;;;;;13.50;2.17;;;;;;;;;;5089388;28;20052;-75
2022/04/13 12:49:05;;;;;;;16.25;2.30;;;;;;;;;;5090185;28;20414;-75
2022/04/13 12:51:37;;;;;;;13.02;2.20;;;;;;;;;;5088921;28;20047;-75
2022/04/13 12:54:11;;;;;;;13.18;2.40;;;;;;;;;;5089160;28;20040;-76
2022/04/13 12:56:48;;;;;;;11.00;2.10;;;;;;;;;;5071402;28;20594;-75
2022/04/13 12:59:22;;;;;;;12.93;2.20;;;;;;;;;;5089413;28;20403;-76
2022/04/13 13:01:55;;;;;;;11.40;2.75;;;;;;;;;;5089197;28;20063;-77
2022/04/13 13:04:27;;;;;;;9.32;2.25;;;;;;;;;;5071380;28;20043;-75
2022/04/13 13:07:01;;;;;;;15.18;2.63;;;;;;;;;;5088339;28;20052;-74
2022/04/13 13:09:37;;;;;;;10.57;1.85;;;;;;;;;;5088821;28;20601;-76
2022/04/13 13:12:17;;;;;;;9.73;2.85;;;;;;;;;;5089293;28;20043;-76
2022/04/13 13:14:48;;;;;;;11.30;1.90;;;;;;;;;;5088637;28;20052;-74
2022/04/13 13:17:31;;;;;;;8.98;1.75;;;;;;;;;;5088781;28;20055;-75
2022/04/13 13:20:17;;;;;;;9.48;2.05;;;;;;;;;;5088803;28;20380;-76
2022/04/13 13:22:50;;;;;;;8.73;1.70;;;;;;;;;;5088610;28;20169;-76
2022/04/13 13:25:21;;;;;;;12.35;2.40;;;;;;;;;;5087777;28;20059;-75
2022/04/13 13:27:55;;;;;;;14.13;2.13;;;;;;;;;;5088493;28;20051;-74
2022/04/13 13:30:26;;;;;;;6.25;1.63;;;;;;;;;;5088164;28;20051;-76
2022/04/13 13:32:57;;;;;;;10.43;1.75;;;;;;;;;;5088760;28;20055;-76
2022/04/13 13:35:30;;;;;;;7.05;1.63;;;;;;;;;;5088460;28;20044;-76
2022/04/13 13:38:11;;;;;;;6.93;1.63;;;;;;;;;;5088179;28;20856;-76
2022/04/13 13:40:43;;;;;;;9.38;1.80;;;;;;;;;;5070584;28;20036;-76
2022/04/13 13:43:18;;;;;;;7.85;1.63;;;;;;;;;;5088289;28;20052;-78
2022/04/13 13:45:52;;;;;;;9.88;1.80;;;;;;;;;;5087884;28;20048;-76
2022/04/13 13:48:27;;;;;;;9.25;2.00;;;;;;;;;;5088194;28;20043;-76
2022/04/13 13:51:00;;;;;;;12.82;1.67;;;;;;;;;;5087815;28;20048;-76
2022/04/13 13:53:30;;;;;;;7.82;1.98;;;;;;;;;;5069651;28;20055;-76
2022/04/13 13:56:01;;;;;;;9.00;2.03;;;;;;;;;;5088013;28;20055;-76
2022/04/13 13:58:31;;;;;;;5.00;1.67;;;;;;;;;;5086966;28;20495;-76
2022/04/13 14:01:01;;;;;;;9.85;1.40;;;;;;;;;;5088404;28;20044;-77
2022/04/13 14:03:31;;;;;;;7.13;1.58;;;;;;;;;;5087696;28;20499;-77
2022/04/13 14:06:01;;;;;;;8.98;1.98;;;;;;;;;;5087656;28;20047;-77
2022/04/13 14:08:30;;;;;;;7.65;1.67;;;;;;;;;;5087417;28;20044;-78
2022/04/13 14:11:03;;;;;;;8.95;1.20;;;;;;;;;;5087494;28;20071;-77
2022/04/13 14:13:33;;;;;;;10.17;2.00;;;;;;;;;;5087453;28;20044;-77
2022/04/13 14:16:04;;;;;;;8.48;1.65;;;;;;;;;;5087776;28;20052;-76
2022/04/13 14:18:34;;;;;;;4.97;1.20;;;;;;;;;;5087854;28;20492;-76
2022/04/13 14:21:03;;;;;;;10.73;1.50;;;;;;;;;;5088068;28;20418;-77
2022/04/13 14:23:33;;;;;;;10.00;1.77;;;;;;;;;;5086785;28;20062;-75
2022/04/13 14:26:03;;;;;;;8.85;2.03;;;;;;;;;;5088097;28;20043;-76
2022/04/13 14:28:33;;;;;;;12.95;2.20;;;;;;;;;;5087048;28;20071;-81
2022/04/13 14:31:03;;;;;;;6.03;1.97;;;;;;;;;;5087074;28;20395;-76
2022/04/13 14:33:34;;;;;;;8.15;1.73;;;;;;;;;;5087060;28;20047;-76
2022/04/13 14:36:04;;;;;;;17.60;2.10;;;;;;;;;;5069286;28;20052;-77
2022/04/13 14:38:34;;;;;;;10.68;2.17;;;;;;;;;;5087945;28;20051;-76
2022/04/13 14:41:05;;;;;;;17.77;2.60;;;;;;;;;;5087168;28;20055;-76
2022/04/13 14:43:35;;;;;;;6.95;1.92;;;;;;;;;;5087172;28;20067;-77
2022/04/13 14:46:05;;;;;;;8.90;1.92;;;;;;;;;;5086827;28;20510;-76
2022/04/13 14:48:38;;;;;;;12.32;1.90;;;;;;;;;;5087158;28;20044;-75
2022/04/13 14:51:09;;;;;;;10.85;2.00;;;;;;;;;;5087499;28;20040;-77
2022/04/13 14:53:39;;;;;;;10.88;2.15;;;;;;;;;;5087438;28;20044;-76
2022/04/13 14:56:10;;;;;;;10.03;1.97;;;;;;;;;;5086805;28;20052;-76
2022/04/13 14:58:40;;;;;;;8.82;1.80;;;;;;;;;;5087544;28;20059;-78
2022/04/13 15:01:10;;;;;;;6.85;1.58;;;;;;;;;;5086688;28;20070;-76